sensor_id;sensor_type;location;lat;lon;timestamp;P1;durP1;ratioP1;P2;durP2;ratioP2
2438;SDS011;14509;47.992;7.848;2023-05-14T00:00:17;5.70;;;5.00;;
2438;SDS011;14509;47.992;7.848;2023-05-14T00:02:19;5.20;;;4.33;;
2438;SDS011;14509;47.992;7.848;2023-05-14T00:04:21;4.20;;;3.80;;
2438;SDS011;14509;47.992;7.848;2023-05-14T00:06:23;4.83;;;4.40;;
2438;SDS011;14509;47.992;7.848;2023-05-14T00:08:25;4.60;;;3.87;;
2438;SDS011;14509;47.992;7.848;2023-05-14T00:10:28;6.30;;;4.57;;
2438;SDS011;14509;47.992;7.848;2023-05-14T00:12:30;5.80;;;4.50;;
2438;SDS011;14509;47.992;7.848;2023-05-14T00:14:32;4.40;;;4.00;;
2438;SDS011;14509;47.992;7.848;2023-05-14T00:16:36;5.80;;;4.90;;
2438;SDS011;14509;47.992;7.848;2023-05-14T00:18:37;6.20;;;4.37;;
2438;SDS011;14509;47.992;7.848;2023-05-14T00:20:39;6.00;;;4.03;;
2438;SDS011;14509;47.992;7.848;2023-05-14T00:22:41;5.20;;;4.70;;
2438;SDS011;14509;47.992;7.848;2023-05-14T00:24:43;3.90;;;3.60;;
2438;SDS011;14509;47.992;7.848;2023-05-14T00:26:45;4.00;;;3.60;;
2438;SDS011;14509;47.992;7.848;2023-05-14T00:28:47;5.97;;;4.40;;
2438;SDS011;14509;47.992;7.848;2023-05-14T00:30:49;4.53;;;3.97;;
2438;SDS011;14509;47.992;7.848;2023-05-14T00:32:52;4.23;;;3.83;;
2438;SDS011;14509;47.992;7.848;2023-05-14T00:34:54;6.60;;;3.63;;
2438;SDS011;14509;47.992;7.848;2023-05-14T00:36:56;5.40;;;4.50;;
2438;SDS011;14509;47.992;7.848;2023-05-14T00:38:58;3.70;;;3.40;;
2438;SDS011;14509;47.992;7.848;2023-05-14T00:41:00;5.93;;;4.90;;
2438;SDS011;14509;47.992;7.848;2023-05-14T00:43:02;4.87;;;3.63;;
2438;SDS011;14509;47.992;7.848;2023-05-14T00:45:04;4.37;;;3.97;;
2438;SDS011;14509;47.992;7.848;2023-05-14T00:47:07;4.43;;;3.80;;
2438;SDS011;14509;47.992;7.848;2023-05-14T00:49:11;5.33;;;4.40;;
2438;SDS011;14509;47.992;7.848;2023-05-14T00:51:13;4.63;;;3.53;;
2438;SDS011;14509;47.992;7.848;2023-05-14T00:53:16;6.20;;;4.00;;
2438;SDS011;14509;47.992;7.848;2023-05-14T00:55:18;4.40;;;4.00;;
2438;SDS011;14509;47.992;7.848;2023-05-14T00:57:22;3.83;;;3.43;;
2438;SDS011;14509;47.992;7.848;2023-05-14T00:59:24;6.20;;;4.07;;
2438;SDS011;14509;47.992;7.848;2023-05-14T01:01:26;4.70;;;3.13;;
2438;SDS011;14509;47.992;7.848;2023-05-14T01:03:28;6.07;;;4.63;;
2438;SDS011;14509;47.992;7.848;2023-05-14T01:05:35;4.63;;;4.10;;
2438;SDS011;14509;47.992;7.848;2023-05-14T01:07:47;7.00;;;5.57;;
2438;SDS011;14509;47.992;7.848;2023-05-14T01:09:58;4.70;;;4.23;;
2438;SDS011;14509;47.992;7.848;2023-05-14T01:12:04;6.60;;;5.27;;
2438;SDS011;14509;47.992;7.848;2023-05-14T01:14:13;5.63;;;4.93;;
2438;SDS011;14509;47.992;7.848;2023-05-14T01:16:21;6.10;;;4.53;;
2438;SDS011;14509;47.992;7.848;2023-05-14T01:18:27;5.30;;;4.80;;
2438;SDS011;14509;47.992;7.848;2023-05-14T01:20:31;4.40;;;3.70;;
2438;SDS011;14509;47.992;7.848;2023-05-14T01:22:37;4.57;;;4.17;;
2438;SDS011;14509;47.992;7.848;2023-05-14T01:24:39;5.43;;;4.93;;
2438;SDS011;14509;47.992;7.848;2023-05-14T01:26:41;5.70;;;4.73;;
2438;SDS011;14509;47.992;7.848;2023-05-14T01:28:43;5.50;;;4.00;;
2438;SDS011;14509;47.992;7.848;2023-05-14T01:30:47;15.83;;;6.33;;
2438;SDS011;14509;47.992;7.848;2023-05-14T01:32:54;5.57;;;5.03;;
2438;SDS011;14509;47.992;7.848;2023-05-14T01:35:00;6.73;;;5.60;;
2438;SDS011;14509;47.992;7.848;2023-05-14T01:37:03;4.80;;;4.23;;
2438;SDS011;14509;47.992;7.848;2023-05-14T01:39:08;5.43;;;4.50;;
2438;SDS011;14509;47.992;7.848;2023-05-14T01:41:12;4.70;;;4.20;;
2438;SDS011;14509;47.992;7.848;2023-05-14T01:43:15;5.17;;;4.67;;
2438;SDS011;14509;47.992;7.848;2023-05-14T01:45:18;6.77;;;4.33;;
2438;SDS011;14509;47.992;7.848;2023-05-14T01:47:21;5.50;;;4.70;;
2438;SDS011;14509;47.992;7.848;2023-05-14T01:49:23;5.53;;;4.80;;
2438;SDS011;14509;47.992;7.848;2023-05-14T01:51:25;4.83;;;4.27;;
2438;SDS011;14509;47.992;7.848;2023-05-14T01:53:27;4.27;;;3.60;;
2438;SDS011;14509;47.992;7.848;2023-05-14T01:55:30;4.53;;;4.07;;
2438;SDS011;14509;47.992;7.848;2023-05-14T01:57:32;5.20;;;3.07;;
2438;SDS011;14509;47.992;7.848;2023-05-14T01:59:34;4.63;;;4.07;;
2438;SDS011;14509;47.992;7.848;2023-05-14T02:01:37;4.80;;;4.30;;
2438;SDS011;14509;47.992;7.848;2023-05-14T02:03:39;5.07;;;4.67;;
2438;SDS011;14509;47.992;7.848;2023-05-14T02:05:40;7.03;;;4.57;;
2438;SDS011;14509;47.992;7.848;2023-05-14T02:07:42;4.50;;;3.77;;
2438;SDS011;14509;47.992;7.848;2023-05-14T02:09:44;4.20;;;3.70;;
2438;SDS011;14509;47.992;7.848;2023-05-14T02:11:48;6.10;;;4.93;;
2438;SDS011;14509;47.992;7.848;2023-05-14T02:13:50;5.57;;;4.80;;
2438;SDS011;14509;47.992;7.848;2023-05-14T02:15:52;4.73;;;4.30;;
2438;SDS011;14509;47.992;7.848;2023-05-14T02:17:53;4.00;;;3.70;;
2438;SDS011;14509;47.992;7.848;2023-05-14T02:19:55;4.97;;;4.47;;
2438;SDS011;14509;47.992;7.848;2023-05-14T02:21:57;6.60;;;4.47;;
2438;SDS011;14509;47.992;7.848;2023-05-14T02:24:00;4.43;;;4.00;;
2438;SDS011;14509;47.992;7.848;2023-05-14T02:26:03;3.70;;;3.40;;
2438;SDS011;14509;47.992;7.848;2023-05-14T02:28:06;5.53;;;5.03;;
2438;SDS011;14509;47.992;7.848;2023-05-14T02:30:08;4.40;;;4.00;;
2438;SDS011;14509;47.992;7.848;2023-05-14T02:32:12;4.33;;;3.93;;
2438;SDS011;14509;47.992;7.848;2023-05-14T02:34:14;4.73;;;4.10;;
2438;SDS011;14509;47.992;7.848;2023-05-14T02:36:16;4.93;;;4.37;;
2438;SDS011;14509;47.992;7.848;2023-05-14T02:38:18;4.17;;;3.60;;
2438;SDS011;14509;47.992;7.848;2023-05-14T02:40:20;5.50;;;4.83;;
2438;SDS011;14509;47.992;7.848;2023-05-14T02:42:22;4.47;;;3.83;;
2438;SDS011;14509;47.992;7.848;2023-05-14T02:44:26;4.37;;;3.90;;
2438;SDS011;14509;47.992;7.848;2023-05-14T02:46:29;4.53;;;4.10;;
2438;SDS011;14509;47.992;7.848;2023-05-14T02:48:31;4.90;;;3.73;;
2438;SDS011;14509;47.992;7.848;2023-05-14T02:50:33;4.07;;;3.67;;
2438;SDS011;14509;47.992;7.848;2023-05-14T02:52:35;4.90;;;4.20;;
2438;SDS011;14509;47.992;7.848;2023-05-14T02:54:37;6.30;;;4.17;;
2438;SDS011;14509;47.992;7.848;2023-05-14T02:56:39;4.93;;;4.40;;
2438;SDS011;14509;47.992;7.848;2023-05-14T02:58:41;4.30;;;3.90;;
2438;SDS011;14509;47.992;7.848;2023-05-14T03:00:44;5.13;;;4.13;;
2438;SDS011;14509;47.992;7.848;2023-05-14T03:02:47;4.50;;;3.90;;
2438;SDS011;14509;47.992;7.848;2023-05-14T03:04:49;4.07;;;3.67;;
2438;SDS011;14509;47.992;7.848;2023-05-14T03:06:51;3.77;;;3.20;;
2438;SDS011;14509;47.992;7.848;2023-05-14T03:08:52;3.10;;;2.87;;
2438;SDS011;14509;47.992;7.848;2023-05-14T03:10:54;5.10;;;4.07;;
2438;SDS011;14509;47.992;7.848;2023-05-14T03:12:56;4.23;;;3.70;;
2438;SDS011;14509;47.992;7.848;2023-05-14T03:14:58;6.00;;;3.90;;
2438;SDS011;14509;47.992;7.848;2023-05-14T03:17:02;5.37;;;4.47;;
2438;SDS011;14509;47.992;7.848;2023-05-14T03:19:04;6.00;;;5.10;;
2438;SDS011;14509;47.992;7.848;2023-05-14T03:21:06;4.80;;;3.70;;
2438;SDS011;14509;47.992;7.848;2023-05-14T03:23:08;5.43;;;4.13;;
2438;SDS011;14509;47.992;7.848;2023-05-14T03:25:10;4.23;;;3.83;;
2438;SDS011;14509;47.992;7.848;2023-05-14T03:27:12;5.20;;;3.80;;
2438;SDS011;14509;47.992;7.848;2023-05-14T03:29:14;3.90;;;3.47;;
2438;SDS011;14509;47.992;7.848;2023-05-14T03:31:17;4.30;;;3.50;;
2438;SDS011;14509;47.992;7.848;2023-05-14T03:33:20;4.60;;;3.80;;
2438;SDS011;14509;47.992;7.848;2023-05-14T03:35:22;5.40;;;3.87;;
2438;SDS011;14509;47.992;7.848;2023-05-14T03:37:25;4.87;;;3.90;;
2438;SDS011;14509;47.992;7.848;2023-05-14T03:39:26;4.47;;;4.07;;
2438;SDS011;14509;47.992;7.848;2023-05-14T03:41:28;4.03;;;3.73;;
2438;SDS011;14509;47.992;7.848;2023-05-14T03:43:30;4.63;;;3.77;;
2438;SDS011;14509;47.992;7.848;2023-05-14T03:45:32;3.43;;;3.07;;
2438;SDS011;14509;47.992;7.848;2023-05-14T03:47:35;4.33;;;3.83;;
2438;SDS011;14509;47.992;7.848;2023-05-14T03:49:38;5.27;;;4.17;;
2438;SDS011;14509;47.992;7.848;2023-05-14T03:51:42;4.47;;;4.03;;
2438;SDS011;14509;47.992;7.848;2023-05-14T03:53:44;4.10;;;3.70;;
2438;SDS011;14509;47.992;7.848;2023-05-14T03:55:47;5.07;;;3.80;;
2438;SDS011;14509;47.992;7.848;2023-05-14T03:57:50;3.93;;;3.63;;
2438;SDS011;14509;47.992;7.848;2023-05-14T03:59:52;3.67;;;3.30;;
2438;SDS011;14509;47.992;7.848;2023-05-14T04:01:54;5.50;;;4.40;;
2438;SDS011;14509;47.992;7.848;2023-05-14T04:03:56;4.90;;;4.20;;
2438;SDS011;14509;47.992;7.848;2023-05-14T04:06:00;4.83;;;4.23;;
2438;SDS011;14509;47.992;7.848;2023-05-14T04:08:02;4.80;;;3.70;;
2438;SDS011;14509;47.992;7.848;2023-05-14T04:10:04;4.90;;;4.30;;
2438;SDS011;14509;47.992;7.848;2023-05-14T04:12:09;3.77;;;3.27;;
2438;SDS011;14509;47.992;7.848;2023-05-14T04:14:11;4.67;;;4.20;;
2438;SDS011;14509;47.992;7.848;2023-05-14T04:16:13;4.40;;;3.63;;
2438;SDS011;14509;47.992;7.848;2023-05-14T04:18:15;6.27;;;4.40;;
2438;SDS011;14509;47.992;7.848;2023-05-14T04:20:17;4.10;;;3.80;;
2438;SDS011;14509;47.992;7.848;2023-05-14T04:22:21;7.20;;;3.90;;
2438;SDS011;14509;47.992;7.848;2023-05-14T04:24:22;5.37;;;2.87;;
2438;SDS011;14509;47.992;7.848;2023-05-14T04:26:24;4.00;;;3.60;;
2438;SDS011;14509;47.992;7.848;2023-05-14T04:28:26;4.53;;;4.10;;
2438;SDS011;14509;47.992;7.848;2023-05-14T04:30:28;4.73;;;4.13;;
2438;SDS011;14509;47.992;7.848;2023-05-14T04:32:30;4.17;;;3.77;;
2438;SDS011;14509;47.992;7.848;2023-05-14T04:34:32;4.13;;;3.80;;
2438;SDS011;14509;47.992;7.848;2023-05-14T04:36:34;4.17;;;3.87;;
2438;SDS011;14509;47.992;7.848;2023-05-14T04:38:38;4.70;;;4.30;;
2438;SDS011;14509;47.992;7.848;2023-05-14T04:40:40;3.50;;;3.20;;
2438;SDS011;14509;47.992;7.848;2023-05-14T04:42:42;4.40;;;3.97;;
2438;SDS011;14509;47.992;7.848;2023-05-14T04:44:44;4.63;;;4.33;;
2438;SDS011;14509;47.992;7.848;2023-05-14T04:46:46;4.03;;;3.63;;
2438;SDS011;14509;47.992;7.848;2023-05-14T04:48:48;4.60;;;4.20;;
2438;SDS011;14509;47.992;7.848;2023-05-14T04:50:51;4.90;;;4.40;;
2438;SDS011;14509;47.992;7.848;2023-05-14T04:52:53;4.30;;;3.60;;
2438;SDS011;14509;47.992;7.848;2023-05-14T04:54:57;6.00;;;3.80;;
2438;SDS011;14509;47.992;7.848;2023-05-14T04:56:59;5.63;;;4.70;;
2438;SDS011;14509;47.992;7.848;2023-05-14T04:59:02;4.50;;;4.07;;
2438;SDS011;14509;47.992;7.848;2023-05-14T05:01:04;4.80;;;4.23;;
2438;SDS011;14509;47.992;7.848;2023-05-14T05:03:06;5.60;;;5.00;;
2438;SDS011;14509;47.992;7.848;2023-05-14T05:05:08;5.03;;;4.53;;
2438;SDS011;14509;47.992;7.848;2023-05-14T05:07:10;5.63;;;4.40;;
2438;SDS011;14509;47.992;7.848;2023-05-14T05:09:13;4.83;;;4.33;;
2438;SDS011;14509;47.992;7.848;2023-05-14T05:11:17;5.07;;;4.30;;
2438;SDS011;14509;47.992;7.848;2023-05-14T05:13:19;7.70;;;5.20;;
2438;SDS011;14509;47.992;7.848;2023-05-14T05:15:21;5.67;;;5.07;;
2438;SDS011;14509;47.992;7.848;2023-05-14T05:17:23;4.83;;;3.90;;
2438;SDS011;14509;47.992;7.848;2023-05-14T05:19:25;9.00;;;4.50;;
2438;SDS011;14509;47.992;7.848;2023-05-14T05:21:27;6.50;;;4.93;;
2438;SDS011;14509;47.992;7.848;2023-05-14T05:23:29;4.37;;;4.00;;
2438;SDS011;14509;47.992;7.848;2023-05-14T05:25:31;3.43;;;3.13;;
2438;SDS011;14509;47.992;7.848;2023-05-14T05:27:34;3.80;;;3.27;;
2438;SDS011;14509;47.992;7.848;2023-05-14T05:29:36;3.50;;;3.20;;
2438;SDS011;14509;47.992;7.848;2023-05-14T05:31:38;3.80;;;3.40;;
2438;SDS011;14509;47.992;7.848;2023-05-14T05:33:40;5.07;;;3.80;;
2438;SDS011;14509;47.992;7.848;2023-05-14T05:35:42;6.17;;;3.60;;
2438;SDS011;14509;47.992;7.848;2023-05-14T05:37:44;4.07;;;3.67;;
2438;SDS011;14509;47.992;7.848;2023-05-14T05:39:46;3.70;;;3.40;;
2438;SDS011;14509;47.992;7.848;2023-05-14T05:41:48;6.70;;;3.33;;
2438;SDS011;14509;47.992;7.848;2023-05-14T05:43:52;4.07;;;3.73;;
2438;SDS011;14509;47.992;7.848;2023-05-14T05:45:54;4.37;;;3.33;;
2438;SDS011;14509;47.992;7.848;2023-05-14T05:47:56;4.83;;;3.47;;
2438;SDS011;14509;47.992;7.848;2023-05-14T05:49:58;3.50;;;3.20;;
2438;SDS011;14509;47.992;7.848;2023-05-14T05:52:00;3.90;;;3.30;;
2438;SDS011;14509;47.992;7.848;2023-05-14T05:54:02;4.30;;;3.90;;
2438;SDS011;14509;47.992;7.848;2023-05-14T05:56:04;4.87;;;3.90;;
2438;SDS011;14509;47.992;7.848;2023-05-14T05:58:07;3.93;;;3.63;;
2438;SDS011;14509;47.992;7.848;2023-05-14T06:00:10;4.07;;;3.20;;
2438;SDS011;14509;47.992;7.848;2023-05-14T06:02:13;4.70;;;4.30;;
2438;SDS011;14509;47.992;7.848;2023-05-14T06:04:15;4.47;;;4.10;;
2438;SDS011;14509;47.992;7.848;2023-05-14T06:06:17;4.00;;;3.60;;
2438;SDS011;14509;47.992;7.848;2023-05-14T06:08:19;3.90;;;3.43;;
2438;SDS011;14509;47.992;7.848;2023-05-14T06:10:21;3.57;;;2.87;;
2438;SDS011;14509;47.992;7.848;2023-05-14T06:12:23;4.23;;;3.40;;
2438;SDS011;14509;47.992;7.848;2023-05-14T06:14:25;4.10;;;3.70;;
2438;SDS011;14509;47.992;7.848;2023-05-14T06:16:28;4.60;;;4.17;;
2438;SDS011;14509;47.992;7.848;2023-05-14T06:18:30;4.40;;;4.00;;
2438;SDS011;14509;47.992;7.848;2023-05-14T06:20:32;4.50;;;3.70;;
2438;SDS011;14509;47.992;7.848;2023-05-14T06:22:34;4.30;;;3.90;;
2438;SDS011;14509;47.992;7.848;2023-05-14T06:24:36;6.03;;;3.93;;
2438;SDS011;14509;47.992;7.848;2023-05-14T06:26:38;4.43;;;4.03;;
2438;SDS011;14509;47.992;7.848;2023-05-14T06:28:40;3.57;;;3.27;;
2438;SDS011;14509;47.992;7.848;2023-05-14T06:30:42;4.90;;;4.40;;
2438;SDS011;14509;47.992;7.848;2023-05-14T06:32:46;4.30;;;4.00;;
2438;SDS011;14509;47.992;7.848;2023-05-14T06:34:48;4.00;;;3.37;;
2438;SDS011;14509;47.992;7.848;2023-05-14T06:36:49;5.70;;;5.03;;
2438;SDS011;14509;47.992;7.848;2023-05-14T06:38:51;4.57;;;4.13;;
2438;SDS011;14509;47.992;7.848;2023-05-14T06:40:53;4.87;;;4.47;;
2438;SDS011;14509;47.992;7.848;2023-05-14T06:42:55;6.47;;;4.40;;
2438;SDS011;14509;47.992;7.848;2023-05-14T06:44:57;4.60;;;4.20;;
2438;SDS011;14509;47.992;7.848;2023-05-14T06:46:59;5.00;;;4.50;;
2438;SDS011;14509;47.992;7.848;2023-05-14T06:49:03;4.87;;;4.37;;
2438;SDS011;14509;47.992;7.848;2023-05-14T06:51:05;5.50;;;5.00;;
2438;SDS011;14509;47.992;7.848;2023-05-14T06:53:07;5.17;;;4.67;;
2438;SDS011;14509;47.992;7.848;2023-05-14T06:55:09;5.03;;;4.53;;
2438;SDS011;14509;47.992;7.848;2023-05-14T06:57:11;7.07;;;4.97;;
2438;SDS011;14509;47.992;7.848;2023-05-14T06:59:13;8.67;;;4.90;;
2438;SDS011;14509;47.992;7.848;2023-05-14T07:01:15;5.47;;;4.97;;
2438;SDS011;14509;47.992;7.848;2023-05-14T07:03:17;6.20;;;5.60;;
2438;SDS011;14509;47.992;7.848;2023-05-14T07:05:20;6.23;;;5.63;;
2438;SDS011;14509;47.992;7.848;2023-05-14T07:07:23;4.93;;;4.20;;
2438;SDS011;14509;47.992;7.848;2023-05-14T07:09:25;6.50;;;5.50;;
2438;SDS011;14509;47.992;7.848;2023-05-14T07:11:27;5.30;;;4.80;;
2438;SDS011;14509;47.992;7.848;2023-05-14T07:13:29;7.67;;;4.97;;
2438;SDS011;14509;47.992;7.848;2023-05-14T07:15:31;5.80;;;5.20;;
2438;SDS011;14509;47.992;7.848;2023-05-14T07:17:33;5.00;;;4.60;;
2438;SDS011;14509;47.992;7.848;2023-05-14T07:19:35;6.30;;;5.67;;
2438;SDS011;14509;47.992;7.848;2023-05-14T07:21:38;5.50;;;5.00;;
2438;SDS011;14509;47.992;7.848;2023-05-14T07:23:40;6.00;;;5.50;;
2438;SDS011;14509;47.992;7.848;2023-05-14T07:25:42;5.73;;;4.77;;
2438;SDS011;14509;47.992;7.848;2023-05-14T07:27:44;6.00;;;4.67;;
2438;SDS011;14509;47.992;7.848;2023-05-14T07:29:46;5.37;;;4.83;;
2438;SDS011;14509;47.992;7.848;2023-05-14T07:31:49;5.70;;;5.20;;
2438;SDS011;14509;47.992;7.848;2023-05-14T07:33:51;6.87;;;5.17;;
2438;SDS011;14509;47.992;7.848;2023-05-14T07:35:53;8.10;;;6.20;;
2438;SDS011;14509;47.992;7.848;2023-05-14T07:37:56;6.00;;;5.40;;
2438;SDS011;14509;47.992;7.848;2023-05-14T07:39:58;6.53;;;5.93;;
2438;SDS011;14509;47.992;7.848;2023-05-14T07:42:00;5.90;;;5.30;;
2438;SDS011;14509;47.992;7.848;2023-05-14T07:44:03;6.13;;;5.53;;
2438;SDS011;14509;47.992;7.848;2023-05-14T07:46:05;6.90;;;6.17;;
2438;SDS011;14509;47.992;7.848;2023-05-14T07:48:07;5.70;;;5.20;;
2438;SDS011;14509;47.992;7.848;2023-05-14T07:50:09;7.40;;;5.50;;
2438;SDS011;14509;47.992;7.848;2023-05-14T07:52:11;5.60;;;5.10;;
2438;SDS011;14509;47.992;7.848;2023-05-14T07:54:15;6.57;;;5.97;;
2438;SDS011;14509;47.992;7.848;2023-05-14T07:56:17;5.97;;;5.20;;
2438;SDS011;14509;47.992;7.848;2023-05-14T07:58:19;5.00;;;4.50;;
2438;SDS011;14509;47.992;7.848;2023-05-14T08:00:22;5.27;;;4.77;;
2438;SDS011;14509;47.992;7.848;2023-05-14T08:02:24;5.30;;;4.77;;
2438;SDS011;14509;47.992;7.848;2023-05-14T08:04:26;6.03;;;5.13;;
2438;SDS011;14509;47.992;7.848;2023-05-14T08:06:28;5.70;;;4.83;;
2438;SDS011;14509;47.992;7.848;2023-05-14T08:08:30;5.70;;;5.00;;
2438;SDS011;14509;47.992;7.848;2023-05-14T08:10:33;5.60;;;5.10;;
2438;SDS011;14509;47.992;7.848;2023-05-14T08:12:35;5.60;;;5.10;;
2438;SDS011;14509;47.992;7.848;2023-05-14T08:14:38;6.03;;;5.30;;
2438;SDS011;14509;47.992;7.848;2023-05-14T08:34:57;7.37;;;5.53;;
2438;SDS011;14509;47.992;7.848;2023-05-14T08:36:59;5.60;;;5.10;;
2438;SDS011;14509;47.992;7.848;2023-05-14T08:39:03;5.67;;;5.17;;
2438;SDS011;14509;47.992;7.848;2023-05-14T08:41:06;5.30;;;4.80;;
2438;SDS011;14509;47.992;7.848;2023-05-14T08:43:10;6.30;;;5.70;;
2438;SDS011;14509;47.992;7.848;2023-05-14T08:45:17;5.93;;;5.33;;
2438;SDS011;14509;47.992;7.848;2023-05-14T08:47:20;6.33;;;5.77;;
2438;SDS011;14509;47.992;7.848;2023-05-14T08:49:26;6.40;;;5.70;;
2438;SDS011;14509;47.992;7.848;2023-05-14T08:51:36;6.23;;;5.63;;
2438;SDS011;14509;47.992;7.848;2023-05-14T08:53:40;6.30;;;5.70;;
2438;SDS011;14509;47.992;7.848;2023-05-14T08:55:42;5.93;;;5.43;;
2438;SDS011;14509;47.992;7.848;2023-05-14T08:57:45;6.40;;;5.80;;
2438;SDS011;14509;47.992;7.848;2023-05-14T08:59:47;5.60;;;5.10;;
2438;SDS011;14509;47.992;7.848;2023-05-14T09:02:00;6.07;;;5.47;;
2438;SDS011;14509;47.992;7.848;2023-05-14T09:04:05;5.57;;;5.13;;
2438;SDS011;14509;47.992;7.848;2023-05-14T09:06:08;6.70;;;6.20;;
2438;SDS011;14509;47.992;7.848;2023-05-14T09:08:13;6.63;;;5.53;;
2438;SDS011;14509;47.992;7.848;2023-05-14T09:10:15;6.13;;;5.63;;
2438;SDS011;14509;47.992;7.848;2023-05-14T09:12:33;6.90;;;6.20;;
2438;SDS011;14509;47.992;7.848;2023-05-14T09:14:36;6.60;;;6.00;;
2438;SDS011;14509;47.992;7.848;2023-05-14T09:16:38;5.83;;;5.33;;
2438;SDS011;14509;47.992;7.848;2023-05-14T09:18:42;8.80;;;6.37;;
2438;SDS011;14509;47.992;7.848;2023-05-14T09:20:46;7.17;;;6.57;;
2438;SDS011;14509;47.992;7.848;2023-05-14T09:22:51;6.63;;;5.93;;
2438;SDS011;14509;47.992;7.848;2023-05-14T09:25:05;6.60;;;6.10;;
2438;SDS011;14509;47.992;7.848;2023-05-14T09:27:08;7.07;;;6.37;;
2438;SDS011;14509;47.992;7.848;2023-05-14T09:29:18;6.27;;;5.63;;
2438;SDS011;14509;47.992;7.848;2023-05-14T09:31:25;6.90;;;6.30;;
2438;SDS011;14509;47.992;7.848;2023-05-14T11:47:05;4.73;;;3.20;;
2438;SDS011;14509;47.992;7.848;2023-05-14T11:49:07;2.80;;;2.60;;
2438;SDS011;14509;47.992;7.848;2023-05-14T11:51:10;2.40;;;2.20;;
2438;SDS011;14509;47.992;7.848;2023-05-14T11:53:15;2.80;;;2.60;;
2438;SDS011;14509;47.992;7.848;2023-05-14T11:55:18;3.70;;;3.07;;
2438;SDS011;14509;47.992;7.848;2023-05-14T11:57:22;3.67;;;3.00;;
2438;SDS011;14509;47.992;7.848;2023-05-14T11:59:25;3.53;;;3.23;;
2438;SDS011;14509;47.992;7.848;2023-05-14T12:01:28;3.33;;;3.03;;
2438;SDS011;14509;47.992;7.848;2023-05-14T12:03:37;3.73;;;3.43;;
2438;SDS011;14509;47.992;7.848;2023-05-14T12:05:53;3.30;;;3.00;;
2438;SDS011;14509;47.992;7.848;2023-05-14T12:07:57;4.03;;;3.73;;
2438;SDS011;14509;47.992;7.848;2023-05-14T12:10:00;4.47;;;3.57;;
2438;SDS011;14509;47.992;7.848;2023-05-14T12:12:06;4.40;;;4.00;;
2438;SDS011;14509;47.992;7.848;2023-05-14T12:14:11;3.40;;;3.10;;
2438;SDS011;14509;47.992;7.848;2023-05-14T12:16:19;3.60;;;3.10;;
2438;SDS011;14509;47.992;7.848;2023-05-14T12:18:21;3.00;;;2.70;;
2438;SDS011;14509;47.992;7.848;2023-05-14T12:20:26;3.10;;;2.80;;
2438;SDS011;14509;47.992;7.848;2023-05-14T12:22:30;2.23;;;2.13;;
2438;SDS011;14509;47.992;7.848;2023-05-14T12:24:32;2.70;;;2.33;;
2438;SDS011;14509;47.992;7.848;2023-05-14T12:26:36;4.50;;;3.97;;
2438;SDS011;14509;47.992;7.848;2023-05-14T12:28:39;4.67;;;4.27;;
2438;SDS011;14509;47.992;7.848;2023-05-14T12:30:44;3.50;;;3.20;;
2438;SDS011;14509;47.992;7.848;2023-05-14T12:32:46;2.90;;;2.70;;
2438;SDS011;14509;47.992;7.848;2023-05-14T12:34:50;3.43;;;3.13;;
2438;SDS011;14509;47.992;7.848;2023-05-14T12:36:57;3.20;;;2.90;;
2438;SDS011;14509;47.992;7.848;2023-05-14T12:39:01;4.70;;;3.57;;
2438;SDS011;14509;47.992;7.848;2023-05-14T12:41:04;3.40;;;2.40;;
2438;SDS011;14509;47.992;7.848;2023-05-14T12:43:07;4.30;;;2.30;;
2438;SDS011;14509;47.992;7.848;2023-05-14T12:45:10;2.50;;;2.30;;
2438;SDS011;14509;47.992;7.848;2023-05-14T12:47:12;2.83;;;2.53;;
2438;SDS011;14509;47.992;7.848;2023-05-14T12:49:16;2.57;;;2.17;;
2438;SDS011;14509;47.992;7.848;2023-05-14T12:51:18;2.50;;;2.07;;
2438;SDS011;14509;47.992;7.848;2023-05-14T12:53:22;4.83;;;2.97;;
2438;SDS011;14509;47.992;7.848;2023-05-14T12:55:25;4.90;;;4.30;;
2438;SDS011;14509;47.992;7.848;2023-05-14T12:57:30;2.37;;;2.17;;
2438;SDS011;14509;47.992;7.848;2023-05-14T12:59:34;3.47;;;2.47;;
2438;SDS011;14509;47.992;7.848;2023-05-14T13:01:36;4.27;;;2.60;;
2438;SDS011;14509;47.992;7.848;2023-05-14T13:03:38;2.20;;;2.10;;
2438;SDS011;14509;47.992;7.848;2023-05-14T13:05:41;3.33;;;2.20;;
2438;SDS011;14509;47.992;7.848;2023-05-14T13:07:44;3.50;;;2.60;;
2438;SDS011;14509;47.992;7.848;2023-05-14T13:09:49;2.30;;;1.77;;
2438;SDS011;14509;47.992;7.848;2023-05-14T13:11:51;3.00;;;2.33;;
2438;SDS011;14509;47.992;7.848;2023-05-14T13:13:54;2.80;;;2.10;;
2438;SDS011;14509;47.992;7.848;2023-05-14T13:15:56;2.17;;;1.97;;
2438;SDS011;14509;47.992;7.848;2023-05-14T13:17:58;1.77;;;1.67;;
2438;SDS011;14509;47.992;7.848;2023-05-14T13:20:00;2.00;;;1.73;;
2438;SDS011;14509;47.992;7.848;2023-05-14T13:22:03;2.00;;;1.80;;
2438;SDS011;14509;47.992;7.848;2023-05-14T13:24:05;4.33;;;2.00;;
2438;SDS011;14509;47.992;7.848;2023-05-14T13:26:10;3.47;;;1.70;;
2438;SDS011;14509;47.992;7.848;2023-05-14T13:28:13;2.33;;;1.90;;
2438;SDS011;14509;47.992;7.848;2023-05-14T13:30:15;2.20;;;1.93;;
2438;SDS011;14509;47.992;7.848;2023-05-14T13:32:18;1.97;;;1.83;;
2438;SDS011;14509;47.992;7.848;2023-05-14T13:34:20;2.60;;;2.27;;
2438;SDS011;14509;47.992;7.848;2023-05-14T13:36:22;2.30;;;2.10;;
2438;SDS011;14509;47.992;7.848;2023-05-14T13:38:24;2.43;;;2.00;;
2438;SDS011;14509;47.992;7.848;2023-05-14T13:40:26;2.80;;;2.30;;
2438;SDS011;14509;47.992;7.848;2023-05-14T13:42:30;5.93;;;5.03;;
2438;SDS011;14509;47.992;7.848;2023-05-14T13:44:32;3.40;;;2.83;;
2438;SDS011;14509;47.992;7.848;2023-05-14T13:46:35;6.17;;;4.37;;
2438;SDS011;14509;47.992;7.848;2023-05-14T13:48:37;5.23;;;2.53;;
2438;SDS011;14509;47.992;7.848;2023-05-14T13:50:39;1.50;;;1.40;;
2438;SDS011;14509;47.992;7.848;2023-05-14T13:52:41;2.30;;;1.70;;
2438;SDS011;14509;47.992;7.848;2023-05-14T13:54:43;2.60;;;2.40;;
2438;SDS011;14509;47.992;7.848;2023-05-14T13:56:45;1.50;;;1.40;;
2438;SDS011;14509;47.992;7.848;2023-05-14T13:58:49;2.03;;;1.63;;
2438;SDS011;14509;47.992;7.848;2023-05-14T14:00:51;2.67;;;2.47;;
2438;SDS011;14509;47.992;7.848;2023-05-14T14:02:53;2.17;;;2.07;;
2438;SDS011;14509;47.992;7.848;2023-05-14T14:04:56;3.70;;;2.27;;
2438;SDS011;14509;47.992;7.848;2023-05-14T14:06:58;2.20;;;2.00;;
2438;SDS011;14509;47.992;7.848;2023-05-14T14:09:00;8.90;;;5.30;;
2438;SDS011;14509;47.992;7.848;2023-05-14T14:11:02;6.57;;;4.33;;
2438;SDS011;14509;47.992;7.848;2023-05-14T14:13:05;3.00;;;2.70;;
2438;SDS011;14509;47.992;7.848;2023-05-14T14:15:09;6.97;;;4.60;;
2438;SDS011;14509;47.992;7.848;2023-05-14T14:17:12;4.60;;;3.37;;
2438;SDS011;14509;47.992;7.848;2023-05-14T14:19:14;3.30;;;2.80;;
2438;SDS011;14509;47.992;7.848;2023-05-14T14:21:16;6.60;;;4.40;;
2438;SDS011;14509;47.992;7.848;2023-05-14T14:23:20;9.13;;;3.87;;
2438;SDS011;14509;47.992;7.848;2023-05-14T14:25:22;7.90;;;3.37;;
2438;SDS011;14509;47.992;7.848;2023-05-14T14:27:24;5.63;;;3.20;;
2438;SDS011;14509;47.992;7.848;2023-05-14T14:29:27;4.47;;;3.47;;
2438;SDS011;14509;47.992;7.848;2023-05-14T14:31:31;6.87;;;4.20;;
2438;SDS011;14509;47.992;7.848;2023-05-14T14:33:34;4.63;;;2.83;;
2438;SDS011;14509;47.992;7.848;2023-05-14T14:35:36;3.47;;;3.17;;
2438;SDS011;14509;47.992;7.848;2023-05-14T14:37:39;2.50;;;2.30;;
2438;SDS011;14509;47.992;7.848;2023-05-14T14:39:42;2.60;;;2.40;;
2438;SDS011;14509;47.992;7.848;2023-05-14T14:41:43;2.40;;;2.20;;
2438;SDS011;14509;47.992;7.848;2023-05-14T14:43:46;4.57;;;2.67;;
2438;SDS011;14509;47.992;7.848;2023-05-14T14:45:48;4.20;;;2.53;;
2438;SDS011;14509;47.992;7.848;2023-05-14T14:48:20;2.90;;;2.30;;
2438;SDS011;14509;47.992;7.848;2023-05-14T14:50:24;2.90;;;2.40;;
2438;SDS011;14509;47.992;7.848;2023-05-14T14:52:27;3.20;;;2.60;;
2438;SDS011;14509;47.992;7.848;2023-05-14T14:54:30;5.80;;;5.20;;
2438;SDS011;14509;47.992;7.848;2023-05-14T14:56:32;3.80;;;2.60;;
2438;SDS011;14509;47.992;7.848;2023-05-14T14:58:35;4.03;;;3.63;;
2438;SDS011;14509;47.992;7.848;2023-05-14T15:00:38;2.87;;;2.67;;
2438;SDS011;14509;47.992;7.848;2023-05-14T15:02:40;2.20;;;2.00;;